Huvudsida
METAR-TAF:

METAR-TAF

Flygplatser :

Samara, Ryssland

latitud: 53-12N, longitud: 050-09E, höjd: 44 m

Aktuellt väderrapport

Denna rapport gjordes för 43 minuter sedan, klockan 13:30 UTC
Vind 4 kt från syd
Temperatur 12°C
Fuktighet 58%
Tryck 1016 hPa
Sikt 10 km eller mer
Inga moln under 1 500 m eller inga cumulonimbus

METAR: UWWW 291330Z 17002MPS CAVOK 12/04 Q1016 R15/CLRD60 NOSIG RMK QFE750/1001

Tid: 18:13 (14:13 UTC)

Väderprognos

Denna rapport gjordes för 3 timmar och 19 minuter sedan, klockan 10:54 UTC
Prognos gäller från 29 kl. 12 UTC till 30 kl. 12 UTC
Vind 6 kt från syd/sydost i byarna ända upp till 16 kt
Sikt 10 km eller mer
Spridda moln på en höjd av 2000 ft
Temporärt
från 29 kl. 12 UTC till 30 kl. 12 UTC
Vind 14 kt från syd i byarna ända upp till 23 kt

TAF: UWWW 291054Z 2912/3012 16003G08MPS 9999 SCT020 TX14/3011Z TN04/3003Z TEMPO 2912/3012 19007G12MPS

Aktuella väderrapporter och prognoser från 4000 flygplatser (METAR- och TAF-rapporter).

De tillgängliga stationerna syns som gula och röda prickar på kartan.

För musen över prickarna för att se namnen på stationerna.

Klicka sedan för att få väderrapporter och prognoser.

För att ändra kartan: Klicka på de gröna knapparna med ett svart kors på för att zooma in; den gröna knappen med ett streck på för att zooma ut; eller på de gröna pilarna för angränsande kartor.


METAR-TAF: